9CO7 weather

Beaugh Airport
Kersey, Colorado, United States

Public forecast

Using degrees Fahrenheit for public forecast. Weather courtesy of forecast.io.

Closest aviation weather report (METAR) to Beaugh Airport

Closest report is Greeley–Weld County Airport, 6.4 nm (11.9 km) NNW. Retrieved 2020/02/18 14:56 UTC (41 minutes ago):

KGXY 181456Z AUTO 19003KT 7SM CLR M03/M04 A3026 RMK AO2 SLP290 T10331044 53013 FZRANO

Closest aviation forecast (TAF) to Beaugh Airport

Closest forecast is Denver International Airport, 29.1 nm (53.9 km) S. Retrieved 2020/02/18 12:27 UTC (3 hours ago):

TAF KDEN 181125Z 1812/1918 18006KT P6SM VCSH SCT015 BKN060 FM181400 20007KT P6SM SCT015 BKN070 FM181600 15006KT P6SM SCT070 FM181900 10006KT P6SM FEW070 FM190100 16007KT P6SM SCT020 BKN040 FM190600 VRB05KT P6SM BKN020 OVC035 FM191200 29005KT P6SM BKN016 OVC035